Portada
METAR-TAF:

METAR-TAF

Aeroports :

Hafar Al-Batin, Aràbia Saudita

latitud: 27-54N, longitud: 045-32E, altitud: 413 m

METAR: manca

Hora: 11:42 (08:42 UTC)

Pronòstic

L'informe es va fer fa 3 hores i 42 minuts, a les 05:00 UTC
Pronòstic vàlid del 21 a les 06 UTC al 21 a les 20 UTC
Vent 10 kt del Nord
Visibilitat: 7000 m
Escasses núvols a una alçada de 4000 ft
Evolucionant progressivament
l' 21 a les 18 UTC al 21 a les 20 UTC
Vent 3 kt amb direcció variable

TAF: OEKK 210500Z 2106/2120 36010KT 7000 FEW040 BECMG 2118/2120 VRB03KT

Observacions i pronòstics meteorològics de més de 4000 aeroports (METAR i TAF).

Les estacions disponibles són els punts grocs i vermells al mapa.

Posi el ratolí al punt desitjat per veure el nom de l'estació.

Feu clic per veure les observacions i els pronòstics meteorològics.

Per canviar el mapa: feu clic els botons verds amb una creu de color negre per apropar; al botó verd amb un guió per allunyar la imatge; o en les fletxes verdes per a mapes adjacents.


METAR-TAF: